Impacts TAF Board
For situational awareness. Not to be used for flight planning purposes.
IDs:

KMCO - Orlando Intl, FL, US

Issued at 1127 UTC 16 Feb 2019
Updated at 1504 UTC 16 Feb 2019
Potential Impact None Slight Moderate High
Time<<17/16Z 17/17Z 17/18Z 17/19Z 17/20Z 17/21Z 17/22Z 17/23Z 18/00Z 18/01Z 18/02Z 18/03Z 18/04Z
Type PRVL PRVL
VIS >6 >6
CIG 250 250
Cover BKN BKN
FltCat VFR VFR
WX -- --
WDir 200 200
WSpd 7 7
WGst -- --
Raw TAF
KMCO 161127Z 1612/1718 22004KT P6SM SCT250
  FM161500 23009KT P6SM SCT040 SCT250
  FM162300 22005KT P6SM FEW040 BKN250
  FM171400 20007KT P6SM SCT040 BKN250


METAR Board
Radar Display
Forecast Discussion
For situational awareness. Not to be used for flight planning purposes.